sensor_id;sensor_type;location;lat;lon;timestamp;P1;durP1;ratioP1;P2;durP2;ratioP2
21206;SDS011;10761;48.532;8.026;2022-10-16T00:01:22;3.00;;;0.75;;
21206;SDS011;10761;48.532;8.026;2022-10-16T00:03:53;7.85;;;0.93;;
21206;SDS011;10761;48.532;8.026;2022-10-16T00:06:20;4.20;;;0.93;;
21206;SDS011;10761;48.532;8.026;2022-10-16T00:08:46;8.65;;;0.77;;
21206;SDS011;10761;48.532;8.026;2022-10-16T00:11:14;7.03;;;0.73;;
21206;SDS011;10761;48.532;8.026;2022-10-16T00:13:42;4.97;;;0.77;;
21206;SDS011;10761;48.532;8.026;2022-10-16T00:16:11;3.75;;;0.60;;
21206;SDS011;10761;48.532;8.026;2022-10-16T00:18:38;1.55;;;0.65;;
21206;SDS011;10761;48.532;8.026;2022-10-16T00:21:08;1.05;;;0.60;;
21206;SDS011;10761;48.532;8.026;2022-10-16T00:23:39;3.65;;;0.60;;
21206;SDS011;10761;48.532;8.026;2022-10-16T00:26:06;1.25;;;0.60;;
21206;SDS011;10761;48.532;8.026;2022-10-16T00:28:34;2.47;;;0.88;;
21206;SDS011;10761;48.532;8.026;2022-10-16T00:31:04;5.97;;;0.70;;
21206;SDS011;10761;48.532;8.026;2022-10-16T00:33:32;4.50;;;0.70;;
21206;SDS011;10761;48.532;8.026;2022-10-16T00:35:58;2.03;;;0.70;;
21206;SDS011;10761;48.532;8.026;2022-10-16T00:38:24;4.55;;;0.80;;
21206;SDS011;10761;48.532;8.026;2022-10-16T00:40:50;4.00;;;0.85;;
21206;SDS011;10761;48.532;8.026;2022-10-16T00:48:46;3.40;;;0.95;;
21206;SDS011;10761;48.532;8.026;2022-10-16T00:51:18;3.20;;;0.70;;
21206;SDS011;10761;48.532;8.026;2022-10-16T00:53:48;4.05;;;0.93;;
21206;SDS011;10761;48.532;8.026;2022-10-16T00:56:14;3.00;;;0.50;;
21206;SDS011;10761;48.532;8.026;2022-10-16T00:58:40;2.55;;;0.70;;
21206;SDS011;10761;48.532;8.026;2022-10-16T01:01:05;2.35;;;0.57;;
21206;SDS011;10761;48.532;8.026;2022-10-16T01:03:32;3.13;;;0.80;;
21206;SDS011;10761;48.532;8.026;2022-10-16T01:09:13;4.88;;;0.90;;
21206;SDS011;10761;48.532;8.026;2022-10-16T01:11:44;1.45;;;0.88;;
21206;SDS011;10761;48.532;8.026;2022-10-16T01:14:19;1.20;;;0.63;;
21206;SDS011;10761;48.532;8.026;2022-10-16T01:17:11;4.85;;;0.95;;
21206;SDS011;10761;48.532;8.026;2022-10-16T01:22:24;6.30;;;1.30;;
21206;SDS011;10761;48.532;8.026;2022-10-16T01:24:56;2.58;;;0.80;;
21206;SDS011;10761;48.532;8.026;2022-10-16T01:27:30;5.30;;;0.93;;
21206;SDS011;10761;48.532;8.026;2022-10-16T01:30:42;2.58;;;0.80;;
21206;SDS011;10761;48.532;8.026;2022-10-16T01:32:59;3.00;;;0.80;;
21206;SDS011;10761;48.532;8.026;2022-10-16T01:35:32;2.17;;;0.82;;
21206;SDS011;10761;48.532;8.026;2022-10-16T01:38:08;1.92;;;0.80;;
21206;SDS011;10761;48.532;8.026;2022-10-16T01:40:49;9.45;;;0.90;;
21206;SDS011;10761;48.532;8.026;2022-10-16T01:43:24;8.52;;;0.95;;
21206;SDS011;10761;48.532;8.026;2022-10-16T01:45:54;7.20;;;0.90;;
21206;SDS011;10761;48.532;8.026;2022-10-16T01:48:21;10.15;;;1.00;;
21206;SDS011;10761;48.532;8.026;2022-10-16T01:50:51;4.43;;;0.90;;
21206;SDS011;10761;48.532;8.026;2022-10-16T01:53:23;5.85;;;0.90;;
21206;SDS011;10761;48.532;8.026;2022-10-16T01:55:50;5.90;;;0.90;;
21206;SDS011;10761;48.532;8.026;2022-10-16T01:58:20;4.07;;;0.88;;
21206;SDS011;10761;48.532;8.026;2022-10-16T02:00:46;7.18;;;1.05;;
21206;SDS011;10761;48.532;8.026;2022-10-16T02:03:13;6.43;;;1.08;;
21206;SDS011;10761;48.532;8.026;2022-10-16T02:05:47;3.30;;;0.95;;
21206;SDS011;10761;48.532;8.026;2022-10-16T02:08:16;2.83;;;0.88;;
21206;SDS011;10761;48.532;8.026;2022-10-16T02:10:42;6.30;;;0.90;;
21206;SDS011;10761;48.532;8.026;2022-10-16T02:13:10;11.25;;;1.00;;
21206;SDS011;10761;48.532;8.026;2022-10-16T02:15:41;7.20;;;1.00;;
21206;SDS011;10761;48.532;8.026;2022-10-16T02:18:07;3.05;;;1.10;;
21206;SDS011;10761;48.532;8.026;2022-10-16T02:20:37;4.20;;;0.80;;
21206;SDS011;10761;48.532;8.026;2022-10-16T02:23:10;4.00;;;0.90;;
21206;SDS011;10761;48.532;8.026;2022-10-16T02:25:43;6.20;;;0.95;;
21206;SDS011;10761;48.532;8.026;2022-10-16T02:28:16;3.38;;;1.20;;
21206;SDS011;10761;48.532;8.026;2022-10-16T02:30:50;3.33;;;1.13;;
21206;SDS011;10761;48.532;8.026;2022-10-16T02:33:26;4.75;;;1.05;;
21206;SDS011;10761;48.532;8.026;2022-10-16T02:35:54;6.28;;;1.10;;
21206;SDS011;10761;48.532;8.026;2022-10-16T02:38:21;3.30;;;1.23;;
21206;SDS011;10761;48.532;8.026;2022-10-16T02:40:49;3.35;;;1.10;;
21206;SDS011;10761;48.532;8.026;2022-10-16T02:43:15;3.25;;;0.85;;
21206;SDS011;10761;48.532;8.026;2022-10-16T02:45:41;4.82;;;1.30;;
21206;SDS011;10761;48.532;8.026;2022-10-16T02:48:07;8.57;;;1.00;;
21206;SDS011;10761;48.532;8.026;2022-10-16T02:50:33;7.82;;;0.90;;
21206;SDS011;10761;48.532;8.026;2022-10-16T02:52:58;4.88;;;1.23;;
21206;SDS011;10761;48.532;8.026;2022-10-16T02:55:24;6.20;;;0.90;;
21206;SDS011;10761;48.532;8.026;2022-10-16T02:57:50;10.25;;;1.20;;
21206;SDS011;10761;48.532;8.026;2022-10-16T03:00:16;4.47;;;0.95;;
21206;SDS011;10761;48.532;8.026;2022-10-16T03:02:42;5.80;;;1.10;;
21206;SDS011;10761;48.532;8.026;2022-10-16T03:05:09;3.70;;;1.17;;
21206;SDS011;10761;48.532;8.026;2022-10-16T03:07:35;7.80;;;0.98;;
21206;SDS011;10761;48.532;8.026;2022-10-16T03:10:01;5.78;;;1.15;;
21206;SDS011;10761;48.532;8.026;2022-10-16T03:12:27;2.95;;;1.05;;
21206;SDS011;10761;48.532;8.026;2022-10-16T03:14:53;10.73;;;1.30;;
21206;SDS011;10761;48.532;8.026;2022-10-16T03:17:20;4.05;;;0.95;;
21206;SDS011;10761;48.532;8.026;2022-10-16T03:19:45;2.70;;;1.02;;
21206;SDS011;10761;48.532;8.026;2022-10-16T03:22:11;5.68;;;0.90;;
21206;SDS011;10761;48.532;8.026;2022-10-16T03:24:36;5.13;;;1.02;;
21206;SDS011;10761;48.532;8.026;2022-10-16T03:27:02;2.30;;;0.90;;
21206;SDS011;10761;48.532;8.026;2022-10-16T03:29:28;2.75;;;1.10;;
21206;SDS011;10761;48.532;8.026;2022-10-16T03:31:54;4.07;;;1.15;;
21206;SDS011;10761;48.532;8.026;2022-10-16T03:34:21;3.88;;;0.90;;
21206;SDS011;10761;48.532;8.026;2022-10-16T03:36:47;2.15;;;0.98;;
21206;SDS011;10761;48.532;8.026;2022-10-16T03:39:12;5.50;;;1.20;;
21206;SDS011;10761;48.532;8.026;2022-10-16T03:41:38;4.18;;;1.00;;
21206;SDS011;10761;48.532;8.026;2022-10-16T03:44:04;9.05;;;1.00;;
21206;SDS011;10761;48.532;8.026;2022-10-16T03:46:30;2.22;;;0.90;;
21206;SDS011;10761;48.532;8.026;2022-10-16T03:48:55;4.32;;;1.13;;
21206;SDS011;10761;48.532;8.026;2022-10-16T03:51:21;9.25;;;1.10;;
21206;SDS011;10761;48.532;8.026;2022-10-16T03:53:46;6.78;;;1.00;;
21206;SDS011;10761;48.532;8.026;2022-10-16T03:56:12;5.32;;;1.05;;
21206;SDS011;10761;48.532;8.026;2022-10-16T03:58:38;2.83;;;0.80;;
21206;SDS011;10761;48.532;8.026;2022-10-16T04:01:03;5.10;;;1.08;;
21206;SDS011;10761;48.532;8.026;2022-10-16T04:03:29;6.75;;;1.38;;
21206;SDS011;10761;48.532;8.026;2022-10-16T04:05:55;5.57;;;0.90;;
21206;SDS011;10761;48.532;8.026;2022-10-16T04:08:20;1.77;;;0.80;;
21206;SDS011;10761;48.532;8.026;2022-10-16T04:10:46;4.30;;;1.05;;
21206;SDS011;10761;48.532;8.026;2022-10-16T04:13:12;3.88;;;1.00;;
21206;SDS011;10761;48.532;8.026;2022-10-16T04:15:38;8.90;;;1.20;;
21206;SDS011;10761;48.532;8.026;2022-10-16T04:18:04;8.65;;;1.35;;
21206;SDS011;10761;48.532;8.026;2022-10-16T04:20:30;5.45;;;1.48;;
21206;SDS011;10761;48.532;8.026;2022-10-16T04:22:55;7.85;;;1.60;;
21206;SDS011;10761;48.532;8.026;2022-10-16T04:25:21;6.32;;;2.17;;
21206;SDS011;10761;48.532;8.026;2022-10-16T04:27:47;11.55;;;2.20;;
21206;SDS011;10761;48.532;8.026;2022-10-16T04:30:12;7.68;;;2.08;;
21206;SDS011;10761;48.532;8.026;2022-10-16T04:32:38;6.07;;;1.63;;
21206;SDS011;10761;48.532;8.026;2022-10-16T04:35:04;3.25;;;1.80;;
21206;SDS011;10761;48.532;8.026;2022-10-16T04:37:30;5.60;;;1.92;;
21206;SDS011;10761;48.532;8.026;2022-10-16T04:39:56;7.47;;;1.60;;
21206;SDS011;10761;48.532;8.026;2022-10-16T04:42:22;5.82;;;1.58;;
21206;SDS011;10761;48.532;8.026;2022-10-16T04:44:47;8.55;;;1.60;;
21206;SDS011;10761;48.532;8.026;2022-10-16T04:47:13;6.40;;;1.70;;
21206;SDS011;10761;48.532;8.026;2022-10-16T04:49:39;5.00;;;1.35;;
21206;SDS011;10761;48.532;8.026;2022-10-16T04:52:05;4.15;;;1.50;;
21206;SDS011;10761;48.532;8.026;2022-10-16T04:54:31;5.45;;;1.52;;
21206;SDS011;10761;48.532;8.026;2022-10-16T04:56:56;5.47;;;1.40;;
21206;SDS011;10761;48.532;8.026;2022-10-16T04:59:22;5.80;;;1.52;;
21206;SDS011;10761;48.532;8.026;2022-10-16T05:01:48;4.00;;;1.40;;
21206;SDS011;10761;48.532;8.026;2022-10-16T05:04:14;3.30;;;1.70;;
21206;SDS011;10761;48.532;8.026;2022-10-16T05:06:40;4.53;;;1.75;;
21206;SDS011;10761;48.532;8.026;2022-10-16T05:09:07;5.05;;;1.40;;
21206;SDS011;10761;48.532;8.026;2022-10-16T05:11:34;8.23;;;1.70;;
21206;SDS011;10761;48.532;8.026;2022-10-16T05:14:00;11.55;;;1.92;;
21206;SDS011;10761;48.532;8.026;2022-10-16T05:16:26;5.20;;;2.17;;
21206;SDS011;10761;48.532;8.026;2022-10-16T05:18:52;9.98;;;1.60;;
21206;SDS011;10761;48.532;8.026;2022-10-16T05:21:17;2.65;;;1.48;;
21206;SDS011;10761;48.532;8.026;2022-10-16T05:23:43;5.57;;;1.70;;
21206;SDS011;10761;48.532;8.026;2022-10-16T05:26:09;2.97;;;1.70;;
21206;SDS011;10761;48.532;8.026;2022-10-16T05:28:34;4.53;;;1.30;;
21206;SDS011;10761;48.532;8.026;2022-10-16T05:31:04;5.25;;;1.70;;
21206;SDS011;10761;48.532;8.026;2022-10-16T05:33:33;6.07;;;1.38;;
21206;SDS011;10761;48.532;8.026;2022-10-16T05:36:03;5.70;;;1.33;;
21206;SDS011;10761;48.532;8.026;2022-10-16T05:38:31;7.05;;;1.55;;
21206;SDS011;10761;48.532;8.026;2022-10-16T05:40:56;6.03;;;1.40;;
21206;SDS011;10761;48.532;8.026;2022-10-16T05:43:23;6.88;;;1.40;;
21206;SDS011;10761;48.532;8.026;2022-10-16T05:45:55;6.78;;;1.63;;
21206;SDS011;10761;48.532;8.026;2022-10-16T05:48:22;7.60;;;1.70;;
21206;SDS011;10761;48.532;8.026;2022-10-16T05:50:48;5.47;;;1.50;;
21206;SDS011;10761;48.532;8.026;2022-10-16T05:53:24;3.13;;;1.40;;
21206;SDS011;10761;48.532;8.026;2022-10-16T05:55:53;7.78;;;1.40;;
21206;SDS011;10761;48.532;8.026;2022-10-16T05:58:20;3.17;;;1.23;;
21206;SDS011;10761;48.532;8.026;2022-10-16T06:00:53;4.90;;;1.20;;
21206;SDS011;10761;48.532;8.026;2022-10-16T06:03:22;6.65;;;1.50;;
21206;SDS011;10761;48.532;8.026;2022-10-16T06:05:48;10.20;;;1.45;;
21206;SDS011;10761;48.532;8.026;2022-10-16T06:08:14;7.55;;;1.33;;
21206;SDS011;10761;48.532;8.026;2022-10-16T06:10:39;8.05;;;1.30;;
21206;SDS011;10761;48.532;8.026;2022-10-16T06:13:05;4.53;;;1.40;;
21206;SDS011;10761;48.532;8.026;2022-10-16T06:15:30;4.60;;;1.40;;
21206;SDS011;10761;48.532;8.026;2022-10-16T06:17:56;3.72;;;1.38;;
21206;SDS011;10761;48.532;8.026;2022-10-16T06:20:22;4.05;;;1.23;;
21206;SDS011;10761;48.532;8.026;2022-10-16T06:22:47;5.07;;;1.50;;
21206;SDS011;10761;48.532;8.026;2022-10-16T06:25:13;3.72;;;1.40;;
21206;SDS011;10761;48.532;8.026;2022-10-16T06:27:39;17.77;;;2.17;;
21206;SDS011;10761;48.532;8.026;2022-10-16T06:30:06;1.33;;;1.10;;
21206;SDS011;10761;48.532;8.026;2022-10-16T06:32:32;7.32;;;1.73;;
21206;SDS011;10761;48.532;8.026;2022-10-16T06:34:58;7.30;;;1.48;;
21206;SDS011;10761;48.532;8.026;2022-10-16T06:37:23;4.57;;;1.20;;
21206;SDS011;10761;48.532;8.026;2022-10-16T06:39:50;7.45;;;1.13;;
21206;SDS011;10761;48.532;8.026;2022-10-16T06:42:19;3.25;;;1.15;;
21206;SDS011;10761;48.532;8.026;2022-10-16T06:44:44;3.03;;;1.05;;
21206;SDS011;10761;48.532;8.026;2022-10-16T06:47:10;7.35;;;1.25;;
21206;SDS011;10761;48.532;8.026;2022-10-16T06:49:36;5.22;;;1.40;;
21206;SDS011;10761;48.532;8.026;2022-10-16T06:52:01;2.97;;;1.30;;
21206;SDS011;10761;48.532;8.026;2022-10-16T06:54:28;3.17;;;1.20;;
21206;SDS011;10761;48.532;8.026;2022-10-16T06:56:53;1.10;;;1.00;;
21206;SDS011;10761;48.532;8.026;2022-10-16T06:59:19;5.93;;;1.30;;
21206;SDS011;10761;48.532;8.026;2022-10-16T07:01:46;2.13;;;1.30;;
21206;SDS011;10761;48.532;8.026;2022-10-16T07:04:11;5.13;;;1.42;;
21206;SDS011;10761;48.532;8.026;2022-10-16T07:06:37;9.98;;;1.92;;
21206;SDS011;10761;48.532;8.026;2022-10-16T07:09:04;2.88;;;1.33;;
21206;SDS011;10761;48.532;8.026;2022-10-16T07:11:31;7.85;;;1.17;;
21206;SDS011;10761;48.532;8.026;2022-10-16T07:13:58;15.98;;;1.25;;
21206;SDS011;10761;48.532;8.026;2022-10-16T07:16:25;5.47;;;1.30;;
21206;SDS011;10761;48.532;8.026;2022-10-16T07:18:53;7.18;;;1.30;;
21206;SDS011;10761;48.532;8.026;2022-10-16T07:21:23;9.05;;;1.23;;
21206;SDS011;10761;48.532;8.026;2022-10-16T07:23:53;4.20;;;1.45;;
21206;SDS011;10761;48.532;8.026;2022-10-16T07:26:21;4.43;;;1.42;;
21206;SDS011;10761;48.532;8.026;2022-10-16T07:28:48;4.72;;;1.48;;
21206;SDS011;10761;48.532;8.026;2022-10-16T07:31:15;8.57;;;1.55;;
21206;SDS011;10761;48.532;8.026;2022-10-16T07:33:42;5.60;;;1.48;;
21206;SDS011;10761;48.532;8.026;2022-10-16T07:36:09;7.85;;;1.80;;
21206;SDS011;10761;48.532;8.026;2022-10-16T07:38:38;7.82;;;2.10;;
21206;SDS011;10761;48.532;8.026;2022-10-16T07:41:05;5.60;;;2.20;;
21206;SDS011;10761;48.532;8.026;2022-10-16T07:43:32;6.22;;;1.85;;
21206;SDS011;10761;48.532;8.026;2022-10-16T07:45:58;2.45;;;1.70;;
21206;SDS011;10761;48.532;8.026;2022-10-16T07:48:26;2.58;;;1.70;;
21206;SDS011;10761;48.532;8.026;2022-10-16T07:50:57;8.65;;;2.10;;
21206;SDS011;10761;48.532;8.026;2022-10-16T07:53:24;7.00;;;1.88;;
21206;SDS011;10761;48.532;8.026;2022-10-16T07:55:50;10.38;;;4.38;;
21206;SDS011;10761;48.532;8.026;2022-10-16T07:58:15;5.82;;;2.80;;
21206;SDS011;10761;48.532;8.026;2022-10-16T08:00:41;9.45;;;2.65;;
21206;SDS011;10761;48.532;8.026;2022-10-16T08:03:07;8.57;;;2.42;;
21206;SDS011;10761;48.532;8.026;2022-10-16T08:05:33;5.60;;;2.80;;
21206;SDS011;10761;48.532;8.026;2022-10-16T08:07:59;7.10;;;2.13;;
21206;SDS011;10761;48.532;8.026;2022-10-16T08:10:26;8.18;;;2.45;;
21206;SDS011;10761;48.532;8.026;2022-10-16T08:12:53;7.18;;;2.20;;
21206;SDS011;10761;48.532;8.026;2022-10-16T08:15:19;3.30;;;2.03;;
21206;SDS011;10761;48.532;8.026;2022-10-16T08:17:45;5.57;;;2.00;;
21206;SDS011;10761;48.532;8.026;2022-10-16T08:20:19;6.03;;;2.20;;
21206;SDS011;10761;48.532;8.026;2022-10-16T08:22:45;8.88;;;3.65;;
21206;SDS011;10761;48.532;8.026;2022-10-16T08:25:11;7.82;;;3.22;;
21206;SDS011;10761;48.532;8.026;2022-10-16T08:27:36;8.90;;;2.85;;
21206;SDS011;10761;48.532;8.026;2022-10-16T08:30:02;13.15;;;3.25;;
21206;SDS011;10761;48.532;8.026;2022-10-16T08:32:28;9.05;;;3.15;;
21206;SDS011;10761;48.532;8.026;2022-10-16T08:34:53;5.55;;;3.17;;
21206;SDS011;10761;48.532;8.026;2022-10-16T08:37:19;4.70;;;2.97;;
21206;SDS011;10761;48.532;8.026;2022-10-16T08:39:44;5.55;;;2.72;;
21206;SDS011;10761;48.532;8.026;2022-10-16T08:47:30;18.23;;;2.75;;
21206;SDS011;10761;48.532;8.026;2022-10-16T08:50:11;13.40;;;4.97;;
21206;SDS011;10761;48.532;8.026;2022-10-16T08:52:39;19.10;;;11.45;;
21206;SDS011;10761;48.532;8.026;2022-10-16T08:55:16;13.27;;;8.85;;
21206;SDS011;10761;48.532;8.026;2022-10-16T08:58:16;12.00;;;6.72;;
21206;SDS011;10761;48.532;8.026;2022-10-16T09:00:53;10.50;;;5.53;;
21206;SDS011;10761;48.532;8.026;2022-10-16T09:03:24;8.25;;;4.40;;
21206;SDS011;10761;48.532;8.026;2022-10-16T09:16:30;10.07;;;5.35;;
21206;SDS011;10761;48.532;8.026;2022-10-16T09:21:30;4.72;;;1.90;;
21206;SDS011;10761;48.532;8.026;2022-10-16T09:24:09;4.97;;;1.70;;
21206;SDS011;10761;48.532;8.026;2022-10-16T09:26:38;3.60;;;1.58;;
21206;SDS011;10761;48.532;8.026;2022-10-16T09:29:04;4.00;;;1.30;;
21206;SDS011;10761;48.532;8.026;2022-10-16T09:31:30;2.67;;;1.13;;
21206;SDS011;10761;48.532;8.026;2022-10-16T09:33:58;5.65;;;1.05;;
21206;SDS011;10761;48.532;8.026;2022-10-16T09:36:29;12.32;;;1.20;;
21206;SDS011;10761;48.532;8.026;2022-10-16T09:39:07;4.95;;;1.10;;
21206;SDS011;10761;48.532;8.026;2022-10-16T09:41:35;4.88;;;1.25;;
21206;SDS011;10761;48.532;8.026;2022-10-16T09:44:17;5.28;;;1.20;;
21206;SDS011;10761;48.532;8.026;2022-10-16T09:47:00;4.00;;;1.20;;
21206;SDS011;10761;48.532;8.026;2022-10-16T09:49:27;7.68;;;1.40;;
21206;SDS011;10761;48.532;8.026;2022-10-16T09:52:03;10.18;;;1.40;;
21206;SDS011;10761;48.532;8.026;2022-10-16T09:54:29;4.05;;;1.45;;
21206;SDS011;10761;48.532;8.026;2022-10-16T09:57:04;4.32;;;1.38;;
21206;SDS011;10761;48.532;8.026;2022-10-16T09:59:45;2.47;;;1.42;;
21206;SDS011;10761;48.532;8.026;2022-10-16T10:02:12;6.20;;;2.15;;
21206;SDS011;10761;48.532;8.026;2022-10-16T10:04:48;5.88;;;1.42;;
21206;SDS011;10761;48.532;8.026;2022-10-16T10:07:17;3.47;;;1.60;;
21206;SDS011;10761;48.532;8.026;2022-10-16T10:09:45;5.60;;;1.27;;
21206;SDS011;10761;48.532;8.026;2022-10-16T10:12:27;5.53;;;1.48;;
21206;SDS011;10761;48.532;8.026;2022-10-16T10:14:56;4.50;;;1.40;;
21206;SDS011;10761;48.532;8.026;2022-10-16T10:17:24;5.90;;;1.40;;
21206;SDS011;10761;48.532;8.026;2022-10-16T10:19:55;3.35;;;1.60;;
21206;SDS011;10761;48.532;8.026;2022-10-16T10:30:47;9.50;;;2.40;;
21206;SDS011;10761;48.532;8.026;2022-10-16T10:33:41;5.55;;;1.55;;
21206;SDS011;10761;48.532;8.026;2022-10-16T10:44:52;7.97;;;1.50;;
21206;SDS011;10761;48.532;8.026;2022-10-16T10:47:51;2.38;;;1.40;;
21206;SDS011;10761;48.532;8.026;2022-10-16T10:53:38;3.70;;;1.55;;
21206;SDS011;10761;48.532;8.026;2022-10-16T11:07:57;3.25;;;1.20;;
21206;SDS011;10761;48.532;8.026;2022-10-16T11:10:27;6.88;;;1.17;;
21206;SDS011;10761;48.532;8.026;2022-10-16T11:13:14;4.95;;;1.40;;
21206;SDS011;10761;48.532;8.026;2022-10-16T11:15:47;4.25;;;1.48;;
21206;SDS011;10761;48.532;8.026;2022-10-16T11:18:16;4.18;;;1.33;;
21206;SDS011;10761;48.532;8.026;2022-10-16T11:20:51;3.40;;;1.02;;
21206;SDS011;10761;48.532;8.026;2022-10-16T11:23:23;2.60;;;1.30;;
21206;SDS011;10761;48.532;8.026;2022-10-16T11:26:05;8.25;;;1.40;;
21206;SDS011;10761;48.532;8.026;2022-10-16T11:28:50;5.68;;;1.10;;
21206;SDS011;10761;48.532;8.026;2022-10-16T11:34:02;3.92;;;1.20;;
21206;SDS011;10761;48.532;8.026;2022-10-16T11:36:32;1.73;;;1.05;;
21206;SDS011;10761;48.532;8.026;2022-10-16T11:39:08;2.40;;;1.00;;
21206;SDS011;10761;48.532;8.026;2022-10-16T11:46:40;4.53;;;1.10;;
21206;SDS011;10761;48.532;8.026;2022-10-16T11:51:40;4.35;;;1.30;;
21206;SDS011;10761;48.532;8.026;2022-10-16T11:56:59;5.22;;;1.30;;
21206;SDS011;10761;48.532;8.026;2022-10-16T11:59:34;4.05;;;1.10;;
21206;SDS011;10761;48.532;8.026;2022-10-16T12:05:04;3.15;;;1.90;;
21206;SDS011;10761;48.532;8.026;2022-10-16T12:07:47;5.32;;;1.35;;
21206;SDS011;10761;48.532;8.026;2022-10-16T12:10:31;6.60;;;1.15;;
21206;SDS011;10761;48.532;8.026;2022-10-16T12:13:01;6.28;;;1.20;;
21206;SDS011;10761;48.532;8.026;2022-10-16T12:15:29;8.90;;;1.40;;
21206;SDS011;10761;48.532;8.026;2022-10-16T12:17:56;4.15;;;1.13;;
21206;SDS011;10761;48.532;8.026;2022-10-16T12:20:26;3.97;;;1.05;;
21206;SDS011;10761;48.532;8.026;2022-10-16T12:22:56;4.13;;;1.15;;
21206;SDS011;10761;48.532;8.026;2022-10-16T12:25:31;5.05;;;1.00;;
21206;SDS011;10761;48.532;8.026;2022-10-16T12:28:01;3.58;;;1.23;;
21206;SDS011;10761;48.532;8.026;2022-10-16T12:30:33;4.22;;;1.20;;
21206;SDS011;10761;48.532;8.026;2022-10-16T12:33:04;2.88;;;1.20;;
21206;SDS011;10761;48.532;8.026;2022-10-16T12:35:45;1.93;;;1.17;;
21206;SDS011;10761;48.532;8.026;2022-10-16T12:43:25;3.60;;;1.38;;
21206;SDS011;10761;48.532;8.026;2022-10-16T12:46:04;7.35;;;1.30;;
21206;SDS011;10761;48.532;8.026;2022-10-16T12:48:45;6.32;;;1.20;;
21206;SDS011;10761;48.532;8.026;2022-10-16T12:51:33;3.70;;;1.33;;
21206;SDS011;10761;48.532;8.026;2022-10-16T12:59:19;4.13;;;1.20;;
21206;SDS011;10761;48.532;8.026;2022-10-16T13:04:33;6.25;;;1.38;;
21206;SDS011;10761;48.532;8.026;2022-10-16T13:07:15;1.48;;;1.08;;
21206;SDS011;10761;48.532;8.026;2022-10-16T13:18:05;5.05;;;1.50;;
21206;SDS011;10761;48.532;8.026;2022-10-16T13:23:46;2.20;;;1.17;;
21206;SDS011;10761;48.532;8.026;2022-10-16T13:29:07;2.53;;;1.30;;
21206;SDS011;10761;48.532;8.026;2022-10-16T13:31:32;2.65;;;1.10;;
21206;SDS011;10761;48.532;8.026;2022-10-16T13:33:59;5.07;;;1.20;;
21206;SDS011;10761;48.532;8.026;2022-10-16T13:36:27;5.72;;;1.23;;
21206;SDS011;10761;48.532;8.026;2022-10-16T13:44:34;3.47;;;1.38;;
21206;SDS011;10761;48.532;8.026;2022-10-16T13:47:04;4.28;;;1.40;;
21206;SDS011;10761;48.532;8.026;2022-10-16T13:49:30;6.88;;;1.35;;
21206;SDS011;10761;48.532;8.026;2022-10-16T13:51:56;3.40;;;1.17;;
21206;SDS011;10761;48.532;8.026;2022-10-16T13:54:24;2.63;;;1.20;;
21206;SDS011;10761;48.532;8.026;2022-10-16T13:56:51;4.80;;;1.27;;
21206;SDS011;10761;48.532;8.026;2022-10-16T13:59:35;3.60;;;1.33;;
21206;SDS011;10761;48.532;8.026;2022-10-16T14:02:17;4.30;;;1.27;;
21206;SDS011;10761;48.532;8.026;2022-10-16T14:04:59;2.08;;;1.23;;
21206;SDS011;10761;48.532;8.026;2022-10-16T14:07:31;4.82;;;1.33;;
21206;SDS011;10761;48.532;8.026;2022-10-16T14:10:03;3.65;;;1.08;;
21206;SDS011;10761;48.532;8.026;2022-10-16T14:12:30;2.15;;;1.38;;
21206;SDS011;10761;48.532;8.026;2022-10-16T14:14:56;3.25;;;1.10;;
21206;SDS011;10761;48.532;8.026;2022-10-16T14:17:28;5.63;;;1.00;;
21206;SDS011;10761;48.532;8.026;2022-10-16T14:19:57;1.83;;;1.00;;
21206;SDS011;10761;48.532;8.026;2022-10-16T14:24:59;3.28;;;0.98;;
21206;SDS011;10761;48.532;8.026;2022-10-16T14:27:30;3.60;;;1.13;;
21206;SDS011;10761;48.532;8.026;2022-10-16T14:32:54;3.50;;;1.13;;
21206;SDS011;10761;48.532;8.026;2022-10-16T14:35:40;4.50;;;1.40;;
21206;SDS011;10761;48.532;8.026;2022-10-16T14:38:06;4.93;;;1.17;;
21206;SDS011;10761;48.532;8.026;2022-10-16T14:40:46;2.85;;;1.02;;
21206;SDS011;10761;48.532;8.026;2022-10-16T14:43:20;3.35;;;1.17;;
21206;SDS011;10761;48.532;8.026;2022-10-16T14:45:52;4.63;;;1.38;;
21206;SDS011;10761;48.532;8.026;2022-10-16T14:48:21;1.77;;;1.13;;
21206;SDS011;10761;48.532;8.026;2022-10-16T14:50:47;1.92;;;1.20;;
21206;SDS011;10761;48.532;8.026;2022-10-16T14:53:13;3.33;;;1.13;;
21206;SDS011;10761;48.532;8.026;2022-10-16T14:55:40;4.13;;;1.20;;
21206;SDS011;10761;48.532;8.026;2022-10-16T14:58:16;3.53;;;1.02;;
21206;SDS011;10761;48.532;8.026;2022-10-16T15:00:44;4.22;;;1.55;;
21206;SDS011;10761;48.532;8.026;2022-10-16T15:03:10;3.30;;;1.30;;
21206;SDS011;10761;48.532;8.026;2022-10-16T15:05:36;3.03;;;1.17;;
21206;SDS011;10761;48.532;8.026;2022-10-16T15:08:02;3.40;;;1.38;;
21206;SDS011;10761;48.532;8.026;2022-10-16T15:10:29;5.63;;;1.27;;
21206;SDS011;10761;48.532;8.026;2022-10-16T15:12:58;4.35;;;1.25;;
21206;SDS011;10761;48.532;8.026;2022-10-16T15:15:28;5.28;;;1.27;;
21206;SDS011;10761;48.532;8.026;2022-10-16T15:18:02;6.95;;;1.35;;
21206;SDS011;10761;48.532;8.026;2022-10-16T15:20:30;6.65;;;1.52;;
21206;SDS011;10761;48.532;8.026;2022-10-16T15:22:59;5.97;;;1.30;;
21206;SDS011;10761;48.532;8.026;2022-10-16T15:28:07;9.60;;;1.40;;
21206;SDS011;10761;48.532;8.026;2022-10-16T15:30:33;1.88;;;1.20;;
21206;SDS011;10761;48.532;8.026;2022-10-16T15:33:00;8.43;;;1.40;;
21206;SDS011;10761;48.532;8.026;2022-10-16T15:35:26;2.95;;;1.20;;
21206;SDS011;10761;48.532;8.026;2022-10-16T15:37:52;6.15;;;1.40;;
21206;SDS011;10761;48.532;8.026;2022-10-16T15:40:18;6.15;;;1.50;;
21206;SDS011;10761;48.532;8.026;2022-10-16T15:42:44;7.68;;;1.48;;
21206;SDS011;10761;48.532;8.026;2022-10-16T15:45:11;7.45;;;1.40;;
21206;SDS011;10761;48.532;8.026;2022-10-16T15:47:37;6.28;;;1.30;;
21206;SDS011;10761;48.532;8.026;2022-10-16T15:50:03;6.18;;;1.33;;
21206;SDS011;10761;48.532;8.026;2022-10-16T15:52:29;8.73;;;1.52;;
21206;SDS011;10761;48.532;8.026;2022-10-16T15:54:56;13.50;;;2.50;;
21206;SDS011;10761;48.532;8.026;2022-10-16T15:57:22;11.45;;;1.60;;
21206;SDS011;10761;48.532;8.026;2022-10-16T15:59:49;15.50;;;1.42;;
21206;SDS011;10761;48.532;8.026;2022-10-16T16:02:15;7.18;;;1.40;;
21206;SDS011;10761;48.532;8.026;2022-10-16T16:04:41;7.95;;;1.35;;
21206;SDS011;10761;48.532;8.026;2022-10-16T16:07:06;9.27;;;1.90;;
21206;SDS011;10761;48.532;8.026;2022-10-16T16:09:32;10.55;;;1.60;;
21206;SDS011;10761;48.532;8.026;2022-10-16T16:11:58;10.77;;;1.55;;
21206;SDS011;10761;48.532;8.026;2022-10-16T16:14:25;4.82;;;1.50;;
21206;SDS011;10761;48.532;8.026;2022-10-16T16:16:53;10.90;;;1.60;;
21206;SDS011;10761;48.532;8.026;2022-10-16T16:19:19;5.85;;;1.40;;
21206;SDS011;10761;48.532;8.026;2022-10-16T16:21:48;5.13;;;1.58;;
21206;SDS011;10761;48.532;8.026;2022-10-16T16:24:14;5.38;;;1.42;;
21206;SDS011;10761;48.532;8.026;2022-10-16T16:26:40;10.38;;;1.70;;
21206;SDS011;10761;48.532;8.026;2022-10-16T16:29:11;10.00;;;1.70;;
21206;SDS011;10761;48.532;8.026;2022-10-16T16:31:38;3.80;;;1.60;;
21206;SDS011;10761;48.532;8.026;2022-10-16T16:34:05;9.75;;;2.63;;
21206;SDS011;10761;48.532;8.026;2022-10-16T16:36:31;2.78;;;1.40;;
21206;SDS011;10761;48.532;8.026;2022-10-16T16:38:57;5.78;;;1.63;;
21206;SDS011;10761;48.532;8.026;2022-10-16T16:41:23;3.47;;;1.55;;
21206;SDS011;10761;48.532;8.026;2022-10-16T16:43:52;6.70;;;1.50;;
21206;SDS011;10761;48.532;8.026;2022-10-16T16:46:19;8.50;;;1.70;;
21206;SDS011;10761;48.532;8.026;2022-10-16T16:48:45;5.85;;;1.80;;
21206;SDS011;10761;48.532;8.026;2022-10-16T16:51:12;8.48;;;2.00;;
21206;SDS011;10761;48.532;8.026;2022-10-16T16:53:41;6.22;;;1.80;;
21206;SDS011;10761;48.532;8.026;2022-10-16T16:56:08;7.43;;;1.80;;